TRA1751 EKCH-EHEH
Flight info
| Callsign | TRA1751 |
|---|---|
| Flight time | 1h 6m |
| Altitude | 36000 |
| Route | NEXEN3D NEXEN T503 GIMRU DCT MICOS DCT NIE DCT DENOL DCT DOMEG DCT ROTEK ROTEK3E |
| Aircraft | B738/M-SDE2E3FGHIRWXY/LB1 |
Departure
| Time | 2026-04-22 16:11 |
|---|---|
| Airport | Copenhagen Kastrup Airport (EKCH) |
Arrival
| Time | 2026-04-22 17:18 |
|---|---|
| Airport | Eindhoven Airport (EHEH) |
| Time | Latitude | Longitude | Altitude | Speed | Heading |
|---|---|---|---|---|---|
| 2026-04-22 16:07 | 55.61706 | 12.66480 | 23 ft | 9 kts | 160° |
| 2026-04-22 16:07 | 55.61636 | 12.66523 | 26 ft | 12 kts | 163° |
| 2026-04-22 16:07 | 55.61537 | 12.66619 | 23 ft | 23 kts | 141° |
| 2026-04-22 16:07 | 55.61432 | 12.66838 | 23 ft | 22 kts | 124° |
| 2026-04-22 16:08 | 55.61400 | 12.66924 | 27 ft | 7 kts | 123° |
| 2026-04-22 16:08 | 55.61388 | 12.66992 | 23 ft | 9 kts | 76° |
| 2026-04-22 16:08 | 55.61425 | 12.67079 | 23 ft | 8 kts | 76° |
| 2026-04-22 16:08 | 55.61387 | 12.67133 | 24 ft | 6 kts | 184° |
| 2026-04-22 16:09 | 55.61343 | 12.67118 | 26 ft | 7 kts | 198° |
| 2026-04-22 16:09 | 55.61296 | 12.67077 | 26 ft | 8 kts | 216° |
| 2026-04-22 16:09 | 55.61272 | 12.66998 | 24 ft | 7 kts | 288° |
| 2026-04-22 16:09 | 55.61296 | 12.66943 | 26 ft | 0 kts | 305° |
| 2026-04-22 16:10 | 55.61331 | 12.66849 | 24 ft | 35 kts | 303° |
| 2026-04-22 16:11 | 55.61600 | 12.66124 | 25 ft | 103 kts | 303° |
| 2026-04-22 16:11 | 55.62086 | 12.64814 | 118 ft | 145 kts | 303° |
| 2026-04-22 16:11 | 55.62659 | 12.63285 | 695 ft | 153 kts | 304° |
| 2026-04-22 16:11 | 55.62889 | 12.62648 | 980 ft | 155 kts | 305° |
| 2026-04-22 16:12 | 55.63489 | 12.61009 | 1646 ft | 157 kts | 305° |
| 2026-04-22 16:12 | 55.64114 | 12.59279 | 2068 ft | 182 kts | 301° |
| 2026-04-22 16:12 | 55.64612 | 12.57037 | 2291 ft | 207 kts | 292° |
| 2026-04-22 16:12 | 55.65098 | 12.54556 | 2669 ft | 222 kts | 293° |
| 2026-04-22 16:13 | 55.65636 | 12.51870 | 3057 ft | 238 kts | 293° |
| 2026-04-22 16:13 | 55.66196 | 12.49073 | 3864 ft | 242 kts | 293° |
| 2026-04-22 16:13 | 55.66760 | 12.46264 | 4594 ft | 249 kts | 293° |
| 2026-04-22 16:13 | 55.67341 | 12.43371 | 5335 ft | 254 kts | 293° |
| 2026-04-22 16:14 | 55.67790 | 12.40255 | 6062 ft | 266 kts | 275° |
| 2026-04-22 16:14 | 55.67373 | 12.37031 | 6915 ft | 277 kts | 246° |
| 2026-04-22 16:14 | 55.66161 | 12.34308 | 7681 ft | 287 kts | 227° |
| 2026-04-22 16:14 | 55.64671 | 12.31879 | 8438 ft | 294 kts | 225° |
| 2026-04-22 16:15 | 55.63144 | 12.29423 | 9217 ft | 299 kts | 225° |
| 2026-04-22 16:15 | 55.61599 | 12.26910 | 10098 ft | 303 kts | 225° |
| 2026-04-22 16:15 | 55.60052 | 12.24371 | 10705 ft | 315 kts | 225° |
| 2026-04-22 16:15 | 55.58269 | 12.21835 | 10944 ft | 342 kts | 208° |
| 2026-04-22 16:16 | 55.55969 | 12.20602 | 11624 ft | 350 kts | 189° |
| 2026-04-22 16:16 | 55.53544 | 12.20000 | 12485 ft | 353 kts | 187° |
| 2026-04-22 16:16 | 55.51091 | 12.19463 | 13345 ft | 356 kts | 186° |
| 2026-04-22 16:16 | 55.48617 | 12.18927 | 14213 ft | 360 kts | 186° |
| 2026-04-22 16:17 | 55.46116 | 12.18372 | 15013 ft | 364 kts | 186° |
| 2026-04-22 16:17 | 55.43596 | 12.17796 | 15852 ft | 367 kts | 186° |
| 2026-04-22 16:17 | 55.41061 | 12.17205 | 16690 ft | 370 kts | 186° |
| 2026-04-22 16:17 | 55.38490 | 12.16599 | 17504 ft | 374 kts | 186° |
| 2026-04-22 16:18 | 55.35897 | 12.15985 | 18311 ft | 378 kts | 186° |
| 2026-04-22 16:18 | 55.33271 | 12.15363 | 19044 ft | 382 kts | 185° |
| 2026-04-22 16:18 | 55.30663 | 12.14744 | 19732 ft | 385 kts | 185° |
| 2026-04-22 16:18 | 55.27992 | 12.14112 | 20433 ft | 389 kts | 185° |
| 2026-04-22 16:19 | 55.25297 | 12.13475 | 21116 ft | 392 kts | 185° |
| 2026-04-22 16:19 | 55.22576 | 12.12834 | 21794 ft | 396 kts | 185° |
| 2026-04-22 16:19 | 55.19885 | 12.11608 | 22420 ft | 406 kts | 204° |
| 2026-04-22 16:19 | 55.17492 | 12.08920 | 23149 ft | 409 kts | 215° |
| 2026-04-22 16:20 | 55.15209 | 12.05955 | 23942 ft | 409 kts | 215° |
| 2026-04-22 16:20 | 55.12945 | 12.02984 | 24399 ft | 415 kts | 215° |
| 2026-04-22 16:20 | 55.10627 | 11.99956 | 24825 ft | 421 kts | 214° |
| 2026-04-22 16:20 | 55.08308 | 11.96952 | 25295 ft | 425 kts | 213° |
| 2026-04-22 16:21 | 55.05907 | 11.93868 | 25794 ft | 429 kts | 213° |
| 2026-04-22 16:21 | 55.03484 | 11.90775 | 26267 ft | 433 kts | 212° |
| 2026-04-22 16:21 | 55.01036 | 11.87663 | 26735 ft | 437 kts | 212° |
| 2026-04-22 16:21 | 54.98564 | 11.84529 | 27189 ft | 441 kts | 212° |
| 2026-04-22 16:22 | 54.93549 | 11.78184 | 28119 ft | 448 kts | 211° |
| 2026-04-22 16:22 | 54.91014 | 11.74982 | 28588 ft | 451 kts | 210° |
| 2026-04-22 16:22 | 54.88490 | 11.71799 | 29000 ft | 455 kts | 210° |
| 2026-04-22 16:23 | 54.83311 | 11.65282 | 29782 ft | 463 kts | 209° |
| 2026-04-22 16:23 | 54.80692 | 11.61997 | 30176 ft | 467 kts | 209° |
| 2026-04-22 16:23 | 54.78043 | 11.58689 | 30533 ft | 470 kts | 209° |
| 2026-04-22 16:24 | 54.75371 | 11.55367 | 30855 ft | 473 kts | 208° |
| 2026-04-22 16:24 | 54.69993 | 11.48693 | 31602 ft | 477 kts | 208° |
| 2026-04-22 16:24 | 54.67296 | 11.45348 | 32051 ft | 476 kts | 208° |
| 2026-04-22 16:25 | 54.64601 | 11.42012 | 32457 ft | 476 kts | 208° |
| 2026-04-22 16:25 | 54.59203 | 11.35346 | 33217 ft | 478 kts | 207° |
| 2026-04-22 16:25 | 54.56513 | 11.32031 | 33747 ft | 475 kts | 207° |
| 2026-04-22 16:26 | 54.53825 | 11.28731 | 34169 ft | 474 kts | 207° |
| 2026-04-22 16:26 | 54.51131 | 11.25439 | 34478 ft | 475 kts | 207° |
| 2026-04-22 16:26 | 54.48430 | 11.22146 | 34825 ft | 476 kts | 208° |
| 2026-04-22 16:26 | 54.45740 | 11.18864 | 35311 ft | 471 kts | 208° |
| 2026-04-22 16:27 | 54.43078 | 11.15622 | 35748 ft | 468 kts | 209° |
| 2026-04-22 16:27 | 54.40445 | 11.12422 | 36034 ft | 469 kts | 209° |
| 2026-04-22 16:27 | 54.37773 | 11.09184 | 36280 ft | 471 kts | 209° |
| 2026-04-22 16:27 | 54.35078 | 11.05920 | 36292 ft | 477 kts | 210° |
| 2026-04-22 16:28 | 54.29725 | 10.99521 | 36296 ft | 472 kts | 206° |
| 2026-04-22 16:28 | 54.24171 | 10.93768 | 36328 ft | 464 kts | 205° |
| 2026-04-22 16:29 | 54.18579 | 10.88223 | 36307 ft | 464 kts | 205° |
| 2026-04-22 16:29 | 54.13006 | 10.82672 | 36311 ft | 464 kts | 205° |
| 2026-04-22 16:30 | 54.07440 | 10.77090 | 36317 ft | 464 kts | 205° |
| 2026-04-22 16:30 | 54.01914 | 10.71545 | 36333 ft | 464 kts | 205° |
| 2026-04-22 16:31 | 53.96355 | 10.65982 | 36324 ft | 464 kts | 206° |
| 2026-04-22 16:31 | 53.90787 | 10.60428 | 36318 ft | 464 kts | 206° |
| 2026-04-22 16:32 | 53.85210 | 10.54883 | 36323 ft | 464 kts | 206° |
| 2026-04-22 16:32 | 53.80566 | 10.50281 | 36319 ft | 464 kts | 205° |
| 2026-04-22 16:33 | 53.74082 | 10.43875 | 36316 ft | 463 kts | 206° |
| 2026-04-22 16:33 | 53.68521 | 10.38398 | 36315 ft | 462 kts | 206° |
| 2026-04-22 16:34 | 53.63906 | 10.33866 | 36315 ft | 461 kts | 206° |
| 2026-04-22 16:34 | 53.58371 | 10.28445 | 36345 ft | 460 kts | 206° |
| 2026-04-22 16:35 | 53.52844 | 10.23050 | 36350 ft | 459 kts | 207° |
| 2026-04-22 16:35 | 53.47324 | 10.17679 | 36330 ft | 458 kts | 207° |
| 2026-04-22 16:36 | 53.41805 | 10.12323 | 36332 ft | 458 kts | 207° |
| 2026-04-22 16:36 | 53.36329 | 10.07026 | 36327 ft | 458 kts | 207° |
| 2026-04-22 16:37 | 53.30812 | 10.01705 | 36331 ft | 458 kts | 207° |
| 2026-04-22 16:37 | 53.25354 | 9.96456 | 36335 ft | 458 kts | 207° |
| 2026-04-22 16:38 | 53.19814 | 9.91145 | 36327 ft | 459 kts | 207° |
| 2026-04-22 16:38 | 53.14271 | 9.85846 | 36328 ft | 459 kts | 207° |
| 2026-04-22 16:39 | 53.08713 | 9.80549 | 36324 ft | 460 kts | 207° |
| 2026-04-22 16:39 | 53.03177 | 9.75289 | 36333 ft | 460 kts | 207° |
| 2026-04-22 16:40 | 52.97617 | 9.70022 | 36331 ft | 461 kts | 207° |
| 2026-04-22 16:41 | 52.89250 | 9.62124 | 36334 ft | 461 kts | 206° |
| 2026-04-22 16:41 | 52.83671 | 9.56879 | 36334 ft | 461 kts | 207° |
| 2026-04-22 16:42 | 52.78089 | 9.51645 | 36330 ft | 461 kts | 207° |
| 2026-04-22 16:42 | 52.72545 | 9.46462 | 36337 ft | 460 kts | 207° |
| 2026-04-22 16:43 | 52.66967 | 9.41261 | 36335 ft | 460 kts | 207° |
| 2026-04-22 16:43 | 52.61407 | 9.35991 | 36332 ft | 461 kts | 211° |
| 2026-04-22 16:44 | 52.56068 | 9.30153 | 36336 ft | 461 kts | 212° |
| 2026-04-22 16:44 | 52.50765 | 9.24212 | 36340 ft | 461 kts | 212° |
| 2026-04-22 16:45 | 52.45453 | 9.18328 | 36348 ft | 461 kts | 212° |
| 2026-04-22 16:45 | 52.40153 | 9.12521 | 36354 ft | 461 kts | 212° |
| 2026-04-22 16:46 | 52.34814 | 9.06698 | 36350 ft | 461 kts | 212° |
| 2026-04-22 16:46 | 52.29466 | 9.00881 | 36347 ft | 462 kts | 212° |
| 2026-04-22 16:47 | 52.24209 | 8.95177 | 36350 ft | 462 kts | 212° |
| 2026-04-22 16:47 | 52.18851 | 8.89381 | 36339 ft | 462 kts | 213° |
| 2026-04-22 16:48 | 52.13478 | 8.83585 | 36344 ft | 462 kts | 213° |
| 2026-04-22 16:48 | 52.11030 | 8.80949 | 36343 ft | 462 kts | 213° |
| 2026-04-22 16:49 | 52.05685 | 8.75206 | 36343 ft | 463 kts | 213° |
| 2026-04-22 16:49 | 52.00436 | 8.69181 | 36328 ft | 463 kts | 224° |
| 2026-04-22 16:49 | 51.98286 | 8.65304 | 36104 ft | 465 kts | 234° |
| 2026-04-22 16:50 | 51.96592 | 8.60845 | 35630 ft | 462 kts | 246° |
| 2026-04-22 16:50 | 51.95354 | 8.56052 | 35031 ft | 461 kts | 250° |
| 2026-04-22 16:50 | 51.94198 | 8.51209 | 34554 ft | 459 kts | 250° |
| 2026-04-22 16:50 | 51.93061 | 8.46408 | 34063 ft | 456 kts | 250° |
| 2026-04-22 16:51 | 51.91918 | 8.41630 | 33567 ft | 452 kts | 250° |
| 2026-04-22 16:51 | 51.90770 | 8.36906 | 33123 ft | 448 kts | 250° |
| 2026-04-22 16:51 | 51.89621 | 8.32244 | 32691 ft | 444 kts | 249° |
| 2026-04-22 16:51 | 51.88477 | 8.27640 | 32257 ft | 439 kts | 250° |
| 2026-04-22 16:52 | 51.87337 | 8.23077 | 31839 ft | 435 kts | 250° |
| 2026-04-22 16:52 | 51.86202 | 8.18551 | 31421 ft | 432 kts | 250° |
| 2026-04-22 16:52 | 51.85076 | 8.14067 | 31018 ft | 428 kts | 250° |
| 2026-04-22 16:52 | 51.83958 | 8.09627 | 30611 ft | 425 kts | 250° |
| 2026-04-22 16:53 | 51.82847 | 8.05215 | 30156 ft | 422 kts | 249° |
| 2026-04-22 16:53 | 51.81743 | 8.00843 | 29693 ft | 418 kts | 249° |
| 2026-04-22 16:53 | 51.80675 | 7.96619 | 29278 ft | 414 kts | 249° |
| 2026-04-22 16:53 | 51.79603 | 7.92387 | 28867 ft | 410 kts | 249° |
| 2026-04-22 16:54 | 51.78528 | 7.88152 | 28439 ft | 406 kts | 249° |
| 2026-04-22 16:54 | 51.77459 | 7.83948 | 28035 ft | 403 kts | 250° |
| 2026-04-22 16:54 | 51.76398 | 7.79781 | 27602 ft | 400 kts | 249° |
| 2026-04-22 16:54 | 51.75341 | 7.75640 | 27196 ft | 396 kts | 250° |
| 2026-04-22 16:55 | 51.74295 | 7.71545 | 26788 ft | 393 kts | 250° |
| 2026-04-22 16:55 | 51.73255 | 7.67479 | 26394 ft | 391 kts | 250° |
| 2026-04-22 16:55 | 51.72219 | 7.63446 | 25988 ft | 389 kts | 250° |
| 2026-04-22 16:55 | 51.71269 | 7.59377 | 25585 ft | 385 kts | 257° |
| 2026-04-22 16:56 | 51.70755 | 7.55229 | 25195 ft | 379 kts | 268° |
| 2026-04-22 16:56 | 51.70543 | 7.51017 | 24829 ft | 376 kts | 269° |
| 2026-04-22 16:56 | 51.70362 | 7.46827 | 24442 ft | 374 kts | 269° |
| 2026-04-22 16:56 | 51.70184 | 7.42641 | 24063 ft | 373 kts | 269° |
| 2026-04-22 16:57 | 51.70001 | 7.38483 | 23611 ft | 372 kts | 269° |
| 2026-04-22 16:57 | 51.69812 | 7.34335 | 23184 ft | 370 kts | 269° |
| 2026-04-22 16:57 | 51.69617 | 7.30212 | 22775 ft | 368 kts | 269° |
| 2026-04-22 16:57 | 51.69418 | 7.26128 | 22369 ft | 365 kts | 269° |
| 2026-04-22 16:58 | 51.69285 | 7.23428 | 22127 ft | 363 kts | 269° |
| 2026-04-22 16:58 | 51.69017 | 7.18037 | 21617 ft | 359 kts | 269° |
| 2026-04-22 16:58 | 51.68814 | 7.14020 | 21235 ft | 357 kts | 269° |
| 2026-04-22 16:58 | 51.68612 | 7.10042 | 20858 ft | 355 kts | 269° |
| 2026-04-22 16:59 | 51.68409 | 7.06077 | 20485 ft | 354 kts | 269° |
| 2026-04-22 16:59 | 51.68209 | 7.02186 | 20109 ft | 352 kts | 269° |
| 2026-04-22 16:59 | 51.68012 | 6.98380 | 19755 ft | 351 kts | 269° |
| 2026-04-22 16:59 | 51.67808 | 6.94479 | 19390 ft | 349 kts | 269° |
| 2026-04-22 17:00 | 51.67604 | 6.90593 | 19022 ft | 348 kts | 269° |
| 2026-04-22 17:00 | 51.67193 | 6.82835 | 18236 ft | 346 kts | 268° |
| 2026-04-22 17:00 | 51.66987 | 6.78985 | 17831 ft | 344 kts | 268° |
| 2026-04-22 17:01 | 51.66781 | 6.75150 | 17438 ft | 343 kts | 268° |
| 2026-04-22 17:01 | 51.66574 | 6.71338 | 17072 ft | 341 kts | 268° |
| 2026-04-22 17:01 | 51.66368 | 6.67549 | 16708 ft | 339 kts | 268° |
| 2026-04-22 17:01 | 51.66162 | 6.63791 | 16347 ft | 337 kts | 268° |
| 2026-04-22 17:02 | 51.65954 | 6.60031 | 15987 ft | 335 kts | 268° |
| 2026-04-22 17:02 | 51.65748 | 6.56304 | 15627 ft | 334 kts | 268° |
| 2026-04-22 17:02 | 51.65540 | 6.52585 | 15270 ft | 332 kts | 267° |
| 2026-04-22 17:02 | 51.65333 | 6.48891 | 14917 ft | 331 kts | 267° |
| 2026-04-22 17:03 | 51.65126 | 6.45210 | 14565 ft | 329 kts | 267° |
| 2026-04-22 17:03 | 51.64918 | 6.41538 | 14212 ft | 328 kts | 267° |
| 2026-04-22 17:03 | 51.64709 | 6.37884 | 13818 ft | 327 kts | 267° |
| 2026-04-22 17:03 | 51.64503 | 6.34283 | 13444 ft | 326 kts | 266° |
| 2026-04-22 17:04 | 51.64294 | 6.30658 | 13077 ft | 324 kts | 266° |
| 2026-04-22 17:04 | 51.64085 | 6.27052 | 12716 ft | 322 kts | 266° |
| 2026-04-22 17:04 | 51.63876 | 6.23462 | 12365 ft | 321 kts | 266° |
| 2026-04-22 17:04 | 51.63668 | 6.19891 | 12007 ft | 319 kts | 265° |
| 2026-04-22 17:05 | 51.63459 | 6.16343 | 11667 ft | 318 kts | 265° |
| 2026-04-22 17:05 | 51.63248 | 6.12804 | 11323 ft | 317 kts | 265° |
| 2026-04-22 17:05 | 51.62952 | 6.09308 | 10971 ft | 316 kts | 256° |
| 2026-04-22 17:05 | 51.62281 | 6.05959 | 10697 ft | 312 kts | 249° |
| 2026-04-22 17:06 | 51.61173 | 6.03042 | 10545 ft | 301 kts | 223° |
| 2026-04-22 17:06 | 51.59579 | 6.00973 | 10456 ft | 290 kts | 215° |
| 2026-04-22 17:06 | 51.58046 | 5.99114 | 10303 ft | 284 kts | 215° |
| 2026-04-22 17:06 | 51.56474 | 5.97193 | 10000 ft | 283 kts | 216° |
| 2026-04-22 17:07 | 51.54916 | 5.95265 | 9706 ft | 282 kts | 216° |
| 2026-04-22 17:07 | 51.53370 | 5.93340 | 9416 ft | 280 kts | 216° |
| 2026-04-22 17:07 | 51.51833 | 5.91421 | 9136 ft | 279 kts | 216° |
| 2026-04-22 17:07 | 51.50310 | 5.89508 | 8853 ft | 278 kts | 218° |
| 2026-04-22 17:08 | 51.48908 | 5.87366 | 8568 ft | 278 kts | 224° |
| 2026-04-22 17:08 | 51.47572 | 5.85133 | 8294 ft | 276 kts | 224° |
| 2026-04-22 17:08 | 51.46238 | 5.82919 | 8009 ft | 276 kts | 224° |
| 2026-04-22 17:08 | 51.44908 | 5.80738 | 7737 ft | 274 kts | 223° |
| 2026-04-22 17:09 | 51.43559 | 5.78542 | 7459 ft | 273 kts | 223° |
| 2026-04-22 17:09 | 51.42226 | 5.76382 | 7182 ft | 273 kts | 223° |
| 2026-04-22 17:09 | 51.41340 | 5.74949 | 6997 ft | 273 kts | 223° |
| 2026-04-22 17:09 | 51.39572 | 5.72094 | 6595 ft | 272 kts | 223° |
| 2026-04-22 17:10 | 51.38238 | 5.69944 | 6303 ft | 272 kts | 222° |
| 2026-04-22 17:10 | 51.36906 | 5.67801 | 6016 ft | 270 kts | 222° |
| 2026-04-22 17:10 | 51.35584 | 5.65676 | 5742 ft | 269 kts | 222° |
| 2026-04-22 17:10 | 51.34294 | 5.63524 | 5443 ft | 269 kts | 229° |
| 2026-04-22 17:11 | 51.33502 | 5.60798 | 5178 ft | 272 kts | 251° |
| 2026-04-22 17:11 | 51.32967 | 5.57894 | 4899 ft | 270 kts | 251° |
| 2026-04-22 17:11 | 51.32432 | 5.55055 | 4740 ft | 263 kts | 251° |
| 2026-04-22 17:11 | 51.31908 | 5.52329 | 4636 ft | 257 kts | 250° |
| 2026-04-22 17:12 | 51.31382 | 5.49629 | 4514 ft | 251 kts | 251° |
| 2026-04-22 17:12 | 51.30865 | 5.46993 | 4411 ft | 244 kts | 251° |
| 2026-04-22 17:12 | 51.30362 | 5.44439 | 4293 ft | 238 kts | 251° |
| 2026-04-22 17:12 | 51.29869 | 5.41942 | 4144 ft | 233 kts | 251° |
| 2026-04-22 17:13 | 51.29384 | 5.39485 | 3955 ft | 231 kts | 251° |
| 2026-04-22 17:13 | 51.29021 | 5.36995 | 3661 ft | 232 kts | 271° |
| 2026-04-22 17:13 | 51.29521 | 5.34576 | 3255 ft | 232 kts | 312° |
| 2026-04-22 17:13 | 51.30711 | 5.32891 | 2979 ft | 227 kts | 330° |
| 2026-04-22 17:14 | 51.32019 | 5.31529 | 2727 ft | 221 kts | 332° |
| 2026-04-22 17:14 | 51.33289 | 5.30236 | 2569 ft | 210 kts | 332° |
| 2026-04-22 17:14 | 51.34465 | 5.29022 | 2534 ft | 193 kts | 332° |
| 2026-04-22 17:14 | 51.35633 | 5.28108 | 2506 ft | 181 kts | 358° |
| 2026-04-22 17:15 | 51.36034 | 5.28100 | 2505 ft | 175 kts | 13° |
| 2026-04-22 17:15 | 51.37850 | 5.29437 | 2072 ft | 163 kts | 35° |
| 2026-04-22 17:15 | 51.38734 | 5.30381 | 2005 ft | 143 kts | 39° |
| 2026-04-22 17:15 | 51.39579 | 5.31335 | 1469 ft | 158 kts | 38° |
| 2026-04-22 17:16 | 51.40437 | 5.32302 | 1074 ft | 145 kts | 37° |
| 2026-04-22 17:16 | 51.40931 | 5.32843 | 867 ft | 135 kts | 38° |
| 2026-04-22 17:16 | 51.41315 | 5.33249 | 806 ft | 128 kts | 36° |
| 2026-04-22 17:16 | 51.42064 | 5.34111 | 630 ft | 137 kts | 40° |
| 2026-04-22 17:17 | 51.42830 | 5.35023 | 395 ft | 136 kts | 39° |
| 2026-04-22 17:17 | 51.43614 | 5.35888 | 241 ft | 140 kts | 35° |
| 2026-04-22 17:17 | 51.44419 | 5.36780 | 91 ft | 133 kts | 38° |
| 2026-04-22 17:17 | 51.45083 | 5.37529 | 68 ft | 97 kts | 35° |
| 2026-04-22 17:18 | 51.45459 | 5.37953 | 74 ft | 41 kts | 35° |
| 2026-04-22 17:18 | 51.45643 | 5.38157 | 76 ft | 26 kts | 34° |
| 2026-04-22 17:18 | 51.45789 | 5.38322 | 75 ft | 28 kts | 35° |
| 2026-04-22 17:18 | 51.45904 | 5.38479 | 74 ft | 15 kts | 80° |
| 2026-04-22 17:19 | 51.45879 | 5.38580 | 70 ft | 0 kts | 127° |
| 2026-04-22 17:19 | 51.45877 | 5.38585 | 71 ft | 2 kts | 127° |
| 2026-04-22 17:20 | 51.45825 | 5.38702 | 65 ft | 13 kts | 125° |
| 2026-04-22 17:20 | 51.45748 | 5.38831 | 74 ft | 6 kts | 126° |
| 2026-04-22 17:21 | 51.45733 | 5.38863 | 74 ft | 0 kts | 124° |
| 2026-04-22 17:21 | 51.45721 | 5.38891 | 74 ft | 0 kts | 124° |
| 2026-04-22 17:22 | 51.45719 | 5.38897 | 74 ft | 1 kts | 124° |
| 2026-04-22 17:22 | 51.45717 | 5.38901 | 74 ft | 0 kts | 124° |